createdAt,value
2017-10-27T00:02:13.345Z,10.60
2017-10-27T00:05:15.647Z,10.60
2017-10-27T00:08:18.749Z,10.60
2017-10-27T00:11:20.677Z,10.60
2017-10-27T00:14:22.714Z,10.50
2017-10-27T00:17:24.662Z,10.50
2017-10-27T00:20:26.961Z,10.60
2017-10-27T00:23:28.886Z,10.60
2017-10-27T00:26:31.614Z,10.70
2017-10-27T00:29:33.536Z,10.70
2017-10-27T00:32:35.943Z,10.70
2017-10-27T00:35:37.922Z,10.80
2017-10-27T00:38:40.210Z,10.80
2017-10-27T00:41:42.105Z,10.80
2017-10-27T00:44:44.871Z,10.80
2017-10-27T00:47:46.761Z,10.80
2017-10-27T00:50:49.447Z,10.80
2017-10-27T00:53:51.478Z,10.80
2017-10-27T00:56:54.526Z,10.70
2017-10-27T00:59:56.434Z,10.70
2017-10-27T01:02:58.749Z,10.70
2017-10-27T01:06:01.418Z,10.70
2017-10-27T01:09:03.340Z,10.70
2017-10-27T01:12:05.996Z,10.70
2017-10-27T01:15:07.913Z,10.70
2017-10-27T01:18:10.683Z,10.70
2017-10-27T01:21:12.972Z,10.70
2017-10-27T01:24:15.088Z,10.70
2017-10-27T01:27:18.160Z,10.70
2017-10-27T01:30:20.088Z,10.70
2017-10-27T01:33:22.794Z,10.70
2017-10-27T01:36:25.476Z,10.70
2017-10-27T01:39:28.451Z,10.70
2017-10-27T01:42:30.354Z,10.70
2017-10-27T01:45:32.292Z,10.70
2017-10-27T01:48:34.226Z,10.70
2017-10-27T01:51:37.191Z,10.70
2017-10-27T01:54:39.091Z,10.70
2017-10-27T01:57:41.018Z,10.70
2017-10-27T02:00:43.822Z,10.70
2017-10-27T02:03:46.819Z,10.70
2017-10-27T02:06:49.489Z,10.70
2017-10-27T02:09:51.414Z,10.70
2017-10-27T02:12:54.084Z,10.70
2017-10-27T02:15:56.491Z,10.70
2017-10-27T02:18:58.386Z,10.70
2017-10-27T02:22:01.450Z,10.60
2017-10-27T02:25:03.339Z,10.60
2017-10-27T02:28:05.273Z,10.50
2017-10-27T02:31:07.177Z,10.50
2017-10-27T02:34:09.482Z,10.40
2017-10-27T02:37:11.405Z,10.30
2017-10-27T02:40:14.109Z,10.30
2017-10-27T02:43:16.014Z,10.30
2017-10-27T02:46:17.933Z,10.40
2017-10-27T02:49:19.936Z,10.40
2017-10-27T02:52:21.928Z,10.40
2017-10-27T02:55:24.705Z,10.50
2017-10-27T02:58:26.656Z,10.50
2017-10-27T03:01:28.586Z,10.60
2017-10-27T03:04:30.507Z,10.60
2017-10-27T03:07:32.421Z,10.50
2017-10-27T03:10:34.719Z,10.50
2017-10-27T03:13:36.674Z,10.50
2017-10-27T03:16:38.641Z,10.50
2017-10-27T03:19:40.537Z,10.40
2017-10-27T03:22:42.580Z,10.40
2017-10-27T03:25:45.264Z,10.30
2017-10-27T03:28:47.534Z,10.30
2017-10-27T03:31:49.423Z,10.30
2017-10-27T03:34:51.369Z,10.30
2017-10-27T03:37:53.318Z,10.20
2017-10-27T03:40:56.037Z,10.10
2017-10-27T03:43:57.961Z,10.10
2017-10-27T03:46:59.892Z,10.00
2017-10-27T03:50:02.555Z,10.00
2017-10-27T03:53:06.082Z,9.90
2017-10-27T03:56:08.004Z,9.90
2017-10-27T03:59:10.343Z,9.90
2017-10-27T04:02:12.274Z,9.90
2017-10-27T04:05:14.329Z,9.90
2017-10-27T04:08:16.240Z,9.90
2017-10-27T04:11:18.271Z,9.90
2017-10-27T04:14:20.273Z,9.90
2017-10-27T04:17:22.242Z,9.80
2017-10-27T04:20:24.163Z,9.80
2017-10-27T04:23:26.949Z,9.70
2017-10-27T04:26:29.436Z,9.60
2017-10-27T04:29:32.543Z,9.70
2017-10-27T04:32:34.530Z,9.70
2017-10-27T04:35:36.836Z,9.70
2017-10-27T04:38:39.739Z,9.70
2017-10-27T04:41:42.009Z,9.60
2017-10-27T04:44:44.099Z,9.60
2017-10-27T04:47:46.057Z,9.60
2017-10-27T04:50:48.043Z,9.60
2017-10-27T04:53:50.046Z,9.60
2017-10-27T04:56:52.722Z,9.70
2017-10-27T04:59:55.010Z,9.70
2017-10-27T05:02:56.936Z,9.80
2017-10-27T05:06:00.027Z,9.80
2017-10-27T05:09:02.019Z,9.70
2017-10-27T05:12:04.842Z,9.80
2017-10-27T05:15:08.144Z,9.80
2017-10-27T05:18:11.281Z,9.90
2017-10-27T05:21:13.197Z,9.90
2017-10-27T05:24:15.238Z,9.90
2017-10-27T05:27:17.890Z,9.90
2017-10-27T05:30:19.811Z,9.90
2017-10-27T05:33:22.469Z,9.90
2017-10-27T05:36:24.443Z,9.90
2017-10-27T05:39:26.428Z,9.90
2017-10-27T05:42:28.429Z,9.90
2017-10-27T05:45:30.343Z,9.90
2017-10-27T05:48:33.436Z,9.90
2017-10-27T05:51:36.116Z,9.90
2017-10-27T05:54:38.905Z,9.90
2017-10-27T05:57:40.826Z,9.90
2017-10-27T06:00:43.622Z,9.80
2017-10-27T06:03:45.534Z,9.80
2017-10-27T06:06:47.573Z,9.80
2017-10-27T06:09:49.554Z,9.70
2017-10-27T06:12:51.534Z,9.70
2017-10-27T06:15:54.816Z,9.50
2017-10-27T06:18:56.749Z,9.40
2017-10-27T06:21:58.648Z,9.40
2017-10-27T06:25:01.467Z,9.30
2017-10-27T06:28:03.619Z,9.20
2017-10-27T06:31:06.391Z,9.20
2017-10-27T06:34:09.185Z,9.20
2017-10-27T06:37:11.131Z,9.20
2017-10-27T06:40:13.072Z,9.20
2017-10-27T06:43:15.176Z,9.30
2017-10-27T06:46:17.876Z,9.60
2017-10-27T06:49:20.579Z,9.80
2017-10-27T06:52:23.347Z,10.00
2017-10-27T06:55:25.594Z,9.90
2017-10-27T06:58:28.061Z,10.10
2017-10-27T07:01:29.970Z,10.20
2017-10-27T07:04:31.894Z,10.10
2017-10-27T07:07:33.828Z,10.00
2017-10-27T07:10:35.803Z,10.00
2017-10-27T07:13:38.562Z,10.10
2017-10-27T07:16:40.563Z,10.10
2017-10-27T07:19:42.498Z,10.50
2017-10-27T07:22:44.425Z,11.00
2017-10-27T07:25:46.733Z,11.40
2017-10-27T07:28:49.402Z,11.90
2017-10-27T07:31:51.318Z,11.90
2017-10-27T07:34:54.012Z,12.30
2017-10-27T07:37:56.112Z,12.30
2017-10-27T07:40:58.778Z,12.30
2017-10-27T07:44:00.723Z,12.30
2017-10-27T07:47:02.751Z,12.10
2017-10-27T07:50:04.693Z,11.90
2017-10-27T07:53:06.642Z,11.90
2017-10-27T07:56:09.431Z,14.40
2017-10-27T07:59:11.333Z,14.30
2017-10-27T08:02:14.044Z,18.70
2017-10-27T08:05:15.961Z,18.60
2017-10-27T08:08:17.881Z,20.30
2017-10-27T08:11:20.544Z,22.70
2017-10-27T08:14:22.937Z,22.70
2017-10-27T08:17:24.853Z,23.90
2017-10-27T08:20:27.706Z,25.50
2017-10-27T08:23:29.615Z,25.40
2017-10-27T08:26:31.557Z,25.90
2017-10-27T08:29:33.455Z,26.50
2017-10-27T08:32:35.887Z,27.10
2017-10-27T08:35:37.807Z,27.20
2017-10-27T08:38:39.775Z,26.00
2017-10-27T08:41:52.566Z,24.70
2017-10-27T08:44:54.858Z,24.60
2017-10-27T08:47:56.757Z,25.40
2017-10-27T08:51:00.558Z,26.00
2017-10-27T08:54:02.451Z,26.00
2017-10-27T08:57:05.419Z,25.60
2017-10-27T09:00:07.928Z,26.00
2017-10-27T09:03:10.262Z,26.80
2017-10-27T09:06:12.167Z,27.00
2017-10-27T09:09:15.262Z,25.10
2017-10-27T09:12:18.006Z,23.40
2017-10-27T09:15:19.946Z,23.40
2017-10-27T09:18:22.640Z,19.40
2017-10-27T09:21:24.571Z,19.30
2017-10-27T09:24:27.310Z,17.80
2017-10-27T09:27:30.738Z,15.80
2017-10-27T09:30:33.427Z,15.40
2017-10-27T09:33:35.724Z,15.30
2017-10-27T09:36:37.638Z,15.00
2017-10-27T09:39:39.585Z,14.60
2017-10-27T09:42:41.480Z,15.00
2017-10-27T09:45:43.394Z,16.30
2017-10-27T09:48:45.291Z,18.80
2017-10-27T09:51:47.603Z,21.50
2017-10-27T09:54:49.533Z,23.80
2017-10-27T09:57:51.472Z,24.80
2017-10-27T10:00:53.527Z,25.40
2017-10-27T10:03:55.446Z,25.50
2017-10-27T10:06:57.415Z,24.70
2017-10-27T10:09:59.406Z,23.60
2017-10-27T10:13:01.306Z,22.40
2017-10-27T10:16:03.231Z,21.00
2017-10-27T10:19:05.280Z,19.20
2017-10-27T10:22:07.986Z,16.70
2017-10-27T10:25:14.026Z,16.00
2017-10-27T10:28:15.963Z,15.90
2017-10-27T10:31:18.582Z,15.50
2017-10-27T10:34:21.428Z,15.10
2017-10-27T10:37:23.334Z,14.90
2017-10-27T10:40:26.078Z,14.90
2017-10-27T10:43:28.080Z,14.90
2017-10-27T10:46:30.358Z,15.30
2017-10-27T10:49:32.277Z,15.50
2017-10-27T10:52:34.987Z,16.30
2017-10-27T10:55:37.168Z,16.20
2017-10-27T10:58:39.888Z,21.20
2017-10-27T11:01:41.791Z,21.10
2017-10-27T11:04:43.778Z,21.90
2017-10-27T11:07:45.706Z,21.50
2017-10-27T11:10:48.799Z,19.70
2017-10-27T11:13:50.728Z,19.60
2017-10-27T11:16:53.106Z,18.90
2017-10-27T11:19:55.771Z,17.80
2017-10-27T11:22:58.274Z,17.80
2017-10-27T11:26:00.170Z,18.40
2017-10-27T11:29:03.967Z,19.90
2017-10-27T11:32:05.873Z,19.90
2017-10-27T11:35:08.577Z,18.80
2017-10-27T11:38:10.497Z,18.70
2017-10-27T11:41:12.744Z,17.70
2017-10-27T11:44:14.713Z,16.80
2017-10-27T11:47:16.737Z,16.70
2017-10-27T11:50:19.445Z,17.00
2017-10-27T11:53:22.136Z,17.00
2017-10-27T11:56:24.829Z,23.10
2017-10-27T11:59:27.826Z,25.70
2017-10-27T12:02:29.772Z,25.70
2017-10-27T12:05:31.766Z,27.70
2017-10-27T12:08:33.691Z,28.10
2017-10-27T12:11:36.422Z,27.10
2017-10-27T12:14:38.448Z,27.10
2017-10-27T12:17:40.742Z,26.70
2017-10-27T12:20:42.669Z,25.80
2017-10-27T12:23:44.614Z,25.20
2017-10-27T12:26:47.303Z,22.60
2017-10-27T12:29:49.218Z,22.50
2017-10-27T12:32:51.887Z,20.70
2017-10-27T12:35:53.802Z,20.70
2017-10-27T12:38:56.473Z,23.90
2017-10-27T12:41:58.546Z,23.90
2017-10-27T12:45:00.450Z,26.00
2017-10-27T12:48:02.481Z,27.40
2017-10-27T12:51:04.385Z,28.70
2017-10-27T12:54:06.708Z,29.80
2017-10-27T12:57:08.609Z,30.50
2017-10-27T13:00:11.296Z,26.00
2017-10-27T13:03:14.144Z,23.40
2017-10-27T13:06:16.702Z,23.30
2017-10-27T13:09:19.374Z,20.20
2017-10-27T13:12:21.473Z,20.10
2017-10-27T13:15:23.375Z,19.50
2017-10-27T13:18:26.078Z,21.10
2017-10-27T13:21:28.746Z,22.50
2017-10-27T13:24:30.679Z,22.50
2017-10-27T13:27:32.574Z,22.80
2017-10-27T13:30:34.983Z,22.30
2017-10-27T13:33:41.877Z,22.20
2017-10-27T13:36:43.832Z,21.10
2017-10-27T13:39:45.755Z,20.10
2017-10-27T13:42:47.760Z,19.00
2017-10-27T13:45:51.428Z,18.70
2017-10-27T13:48:53.779Z,18.60
2017-10-27T13:51:56.446Z,20.50
2017-10-27T13:54:58.782Z,20.50
2017-10-27T13:58:01.445Z,19.10
2017-10-27T14:01:03.543Z,19.10
2017-10-27T14:04:06.959Z,17.60
2017-10-27T14:07:08.908Z,17.60
2017-10-27T14:10:10.828Z,17.10
2017-10-27T14:13:12.780Z,16.70
2017-10-27T14:16:14.702Z,16.40
2017-10-27T14:19:17.409Z,15.80
2017-10-27T14:22:20.186Z,15.90
2017-10-27T14:25:22.173Z,15.90
2017-10-27T14:28:25.610Z,16.10
2017-10-27T14:31:28.379Z,16.10
2017-10-27T14:34:30.272Z,16.00
2017-10-27T14:37:32.218Z,15.90
2017-10-27T14:40:34.354Z,15.80
2017-10-27T14:43:37.492Z,15.50
2017-10-27T14:46:39.384Z,15.50
2017-10-27T14:49:41.637Z,15.50
2017-10-27T14:52:44.299Z,15.60
2017-10-27T14:55:46.597Z,15.60
2017-10-27T14:58:48.490Z,15.70
2017-10-27T15:01:50.834Z,15.50
2017-10-27T15:04:52.750Z,15.10
2017-10-27T15:07:54.674Z,14.90
2017-10-27T15:10:57.373Z,14.30
2017-10-27T15:13:59.729Z,14.30
2017-10-27T15:17:01.633Z,14.10
2017-10-27T15:20:04.347Z,13.90
2017-10-27T15:23:06.263Z,13.90
2017-10-27T15:26:08.677Z,13.80
2017-10-27T15:29:10.593Z,13.70
2017-10-27T15:32:13.394Z,13.50
2017-10-27T15:35:16.110Z,13.50
2017-10-27T15:38:18.158Z,13.50
2017-10-27T15:41:20.054Z,13.50
2017-10-27T15:44:22.822Z,13.20
2017-10-27T15:47:24.797Z,13.20
2017-10-27T15:50:26.821Z,13.00
2017-10-27T15:53:29.619Z,12.70
2017-10-27T15:56:32.010Z,12.60
2017-10-27T15:59:33.932Z,12.50
2017-10-27T16:02:35.959Z,12.50
2017-10-27T16:05:37.886Z,12.30
2017-10-27T16:08:40.174Z,12.20
2017-10-27T16:11:42.102Z,12.10
2017-10-27T16:14:44.275Z,12.10
2017-10-27T16:17:46.175Z,12.10
2017-10-27T16:20:48.096Z,12.10
2017-10-27T16:23:50.750Z,12.20
2017-10-27T16:26:52.682Z,12.20
2017-10-27T16:29:55.380Z,12.00
2017-10-27T16:32:58.874Z,11.90
2017-10-27T16:36:00.810Z,11.80
2017-10-27T16:39:02.752Z,11.80
2017-10-27T16:42:04.670Z,11.70
2017-10-27T16:45:07.021Z,11.60
2017-10-27T16:48:10.036Z,11.40
2017-10-27T16:51:12.893Z,11.30
2017-10-27T16:54:14.818Z,11.20
2017-10-27T16:57:17.897Z,11.20
2017-10-27T17:00:20.278Z,11.20
2017-10-27T17:03:22.620Z,11.20
2017-10-27T17:06:25.303Z,11.20
2017-10-27T17:09:27.576Z,11.20
2017-10-27T17:12:29.581Z,11.20
2017-10-27T17:15:31.932Z,11.20
2017-10-27T17:18:33.956Z,11.20
2017-10-27T17:21:37.015Z,11.20
2017-10-27T17:24:38.945Z,11.20
2017-10-27T17:27:41.550Z,11.20
2017-10-27T17:30:44.356Z,11.20
2017-10-27T17:33:47.141Z,11.10
2017-10-27T17:36:49.044Z,11.10
2017-10-27T17:39:52.155Z,11.20
2017-10-27T17:42:54.841Z,11.10
2017-10-27T17:45:57.566Z,11.10
2017-10-27T17:49:00.263Z,11.10
2017-10-27T17:52:02.639Z,11.00
2017-10-27T17:55:05.302Z,11.00
2017-10-27T17:58:07.598Z,11.00
2017-10-27T18:01:09.519Z,11.00
2017-10-27T18:04:12.213Z,10.90
2017-10-27T18:07:14.352Z,10.90
2017-10-27T18:10:16.666Z,10.90
2017-10-27T18:13:18.652Z,10.90
2017-10-27T18:16:20.924Z,10.90
2017-10-27T18:19:22.910Z,10.90
2017-10-27T18:22:24.834Z,10.90
2017-10-27T18:25:27.622Z,10.90
2017-10-27T18:28:29.909Z,10.90
2017-10-27T18:31:33.321Z,10.80
2017-10-27T18:34:35.607Z,10.80
2017-10-27T18:37:37.848Z,10.70
2017-10-27T18:40:40.406Z,10.60
2017-10-27T18:43:42.402Z,10.50
2017-10-27T18:46:45.499Z,10.40
2017-10-27T18:49:47.427Z,10.40
2017-10-27T18:52:49.470Z,10.30
2017-10-27T18:55:51.374Z,10.30
2017-10-27T18:58:54.088Z,10.30
2017-10-27T19:01:56.048Z,10.30
2017-10-27T19:04:59.140Z,10.20
2017-10-27T19:08:01.039Z,10.20
2017-10-27T19:11:03.901Z,10.00
2017-10-27T19:14:05.883Z,10.00
2017-10-27T19:17:08.207Z,10.00
2017-10-27T19:20:10.997Z,10.00
2017-10-27T19:23:12.946Z,10.00
2017-10-27T19:26:14.964Z,10.00
2017-10-27T19:29:17.662Z,10.00
2017-10-27T19:32:19.563Z,10.00
2017-10-27T19:35:22.647Z,10.00
2017-10-27T19:38:24.561Z,10.00
2017-10-27T19:41:27.334Z,9.90
2017-10-27T19:44:29.230Z,9.90
2017-10-27T19:47:31.193Z,9.90
2017-10-27T19:50:33.109Z,9.90
2017-10-27T19:53:35.978Z,9.90
2017-10-27T19:56:38.689Z,10.00
2017-10-27T19:59:40.978Z,10.00
2017-10-27T20:02:42.876Z,10.00
2017-10-27T20:05:45.954Z,10.10
2017-10-27T20:08:47.859Z,10.00
2017-10-27T20:11:50.113Z,10.10
2017-10-27T20:14:52.016Z,10.10
2017-10-27T20:17:53.983Z,10.10
2017-10-27T20:20:55.906Z,10.10
2017-10-27T20:23:58.974Z,10.10
2017-10-27T20:27:00.901Z,10.10
2017-10-27T20:30:03.352Z,10.10
2017-10-27T20:33:05.427Z,10.10
2017-10-27T20:36:07.452Z,10.10
2017-10-27T20:39:09.350Z,10.10
2017-10-27T20:42:12.424Z,10.10
2017-10-27T20:45:14.631Z,10.20
2017-10-27T20:48:16.886Z,10.20
2017-10-27T20:51:18.809Z,10.20
2017-10-27T20:54:21.517Z,10.10
2017-10-27T20:57:24.213Z,10.10
2017-10-27T21:00:26.978Z,10.20
2017-10-27T21:03:28.949Z,10.10
2017-10-27T21:06:30.969Z,10.10
2017-10-27T21:09:33.662Z,10.10
2017-10-27T21:12:35.587Z,10.10
2017-10-27T21:15:37.511Z,10.10
2017-10-27T21:18:39.505Z,10.10
2017-10-27T21:21:41.493Z,10.10
2017-10-27T21:24:43.533Z,10.10
2017-10-27T21:27:45.435Z,10.10
2017-10-27T21:30:47.371Z,10.10
2017-10-27T21:33:49.263Z,10.00
2017-10-27T21:36:51.178Z,10.00
2017-10-27T21:39:53.183Z,10.00
2017-10-27T21:42:55.482Z,10.00
2017-10-27T21:45:57.396Z,10.00
2017-10-27T21:48:59.314Z,9.90
2017-10-27T21:52:01.336Z,9.90
2017-10-27T21:55:04.032Z,9.70
2017-10-27T21:58:05.955Z,9.70
2017-10-27T22:01:08.308Z,9.70
2017-10-27T22:04:10.277Z,9.60
2017-10-27T22:07:13.080Z,9.50
2017-10-27T22:10:15.018Z,9.50
2017-10-27T22:13:16.958Z,9.50
2017-10-27T22:16:19.642Z,9.40
2017-10-27T22:19:22.076Z,9.40
2017-10-27T22:22:24.013Z,9.40
2017-10-27T22:25:25.983Z,9.40
2017-10-27T22:28:27.869Z,9.30
2017-10-27T22:31:30.319Z,9.30
2017-10-27T22:34:32.252Z,9.20
2017-10-27T22:37:34.195Z,9.20
2017-10-27T22:40:36.117Z,9.20
2017-10-27T22:43:38.406Z,9.20
2017-10-27T22:46:40.428Z,9.20
2017-10-27T22:49:43.524Z,9.20
2017-10-27T22:52:46.272Z,9.30
2017-10-27T22:55:48.209Z,9.20
2017-10-27T22:58:50.892Z,9.40
2017-10-27T23:01:53.169Z,9.40
2017-10-27T23:04:55.142Z,9.50
2017-10-27T23:07:57.161Z,9.60
2017-10-27T23:10:59.137Z,9.60
2017-10-27T23:14:01.086Z,9.70
2017-10-27T23:17:02.997Z,9.70
2017-10-27T23:20:05.240Z,9.70
2017-10-27T23:23:07.160Z,9.60
2017-10-27T23:26:09.146Z,9.60
2017-10-27T23:29:11.041Z,9.50
2017-10-27T23:32:13.323Z,9.50
2017-10-27T23:35:15.302Z,9.50
2017-10-27T23:38:17.315Z,9.40
2017-10-27T23:41:19.292Z,9.40
2017-10-27T23:44:22.408Z,9.40
2017-10-27T23:47:24.305Z,9.40
2017-10-27T23:50:27.389Z,9.40
2017-10-27T23:53:29.356Z,9.50
2017-10-27T23:56:32.073Z,9.50
2017-10-27T23:59:34.050Z,9.50
